Terminal Aerodrome Forecast
Issued by NWS Jacksonville, FL

Home | Current Version | Previous Version | Text Only | Print | Product List | Glossary On
Versions: 1 2 3 4 5 6 7 8 9 10 11 12 13 14 15
000
FTUS42 KJAX 230520
TAFSSI
TAF
KSSI 230520Z 2306/2406 14008KT P6SM SCT020 BKN100 OVC200
     FM231400 16011G16KT P6SM VCSH SCT020 BKN035 OVC050
     FM231700 17012G18KT 6SM -SHRA VCTS BKN020CB OVC050
     FM240400 23010KT P6SM VCSH OVC020=

USA.gov is the U.S. government's official web portal to all federal, state and local government web resources and services.